createdAt,value
2022-09-28T00:02:19.589Z,93902.13
2022-09-28T00:04:49.722Z,93914.56
2022-09-28T00:07:18.397Z,93906.34
2022-09-28T00:09:47.177Z,93905.56
2022-09-28T00:12:16.001Z,93903.97
2022-09-28T00:14:44.972Z,93901.88
2022-09-28T00:17:14.196Z,93905.31
2022-09-28T00:19:44.254Z,93904.50
2022-09-28T00:22:14.352Z,93913.78
2022-09-28T00:24:42.937Z,93909.53
2022-09-28T00:27:11.769Z,93908.47
2022-09-28T00:29:40.519Z,93902.41
2022-09-28T00:32:13.925Z,93902.38
2022-09-28T00:34:46.140Z,93907.16
2022-09-28T00:37:19.045Z,93901.88
2022-09-28T00:39:49.419Z,93896.56
2022-09-28T00:42:19.937Z,93899.22
2022-09-28T00:44:50.182Z,93904.25
2022-09-28T00:47:29.553Z,93904.25
2022-09-28T00:50:04.194Z,93904.50
2022-09-28T00:52:37.434Z,93906.09
2022-09-28T00:55:10.012Z,93906.38
2022-09-28T00:57:41.488Z,93903.72
2022-09-28T01:00:11.413Z,93907.19
2022-09-28T01:02:41.906Z,93909.03
2022-09-28T01:05:12.808Z,93913.00
2022-09-28T01:07:44.209Z,93908.75
2022-09-28T01:10:13.323Z,93912.72
2022-09-28T01:12:42.194Z,93911.94
2022-09-28T01:15:11.849Z,93906.91
2022-09-28T01:17:57.511Z,93901.34
2022-09-28T01:20:56.593Z,93907.44
2022-09-28T01:23:51.260Z,93918.03
2022-09-28T01:26:50.173Z,93916.94
2022-09-28T01:29:26.044Z,93914.81
2022-09-28T01:32:08.770Z,93912.41
2022-09-28T01:34:45.195Z,93911.56
2022-09-28T01:37:17.675Z,93911.31
2022-09-28T01:39:50.127Z,93905.22
2022-09-28T01:42:23.713Z,93907.88
2022-09-28T01:44:57.004Z,93920.09
2022-09-28T01:47:28.394Z,93907.38
2022-09-28T01:50:02.393Z,93910.56
2022-09-28T01:52:36.732Z,93900.50
2022-09-28T01:55:11.111Z,93907.06
2022-09-28T01:57:45.972Z,93909.97
2022-09-28T02:00:17.389Z,93914.75
2022-09-28T02:02:58.450Z,93916.03
2022-09-28T02:05:44.042Z,93910.75
2022-09-28T02:08:17.615Z,93924.75
2022-09-28T02:10:51.198Z,93929.00
2022-09-28T02:13:25.450Z,93918.88
2022-09-28T02:15:59.820Z,93922.06
2022-09-28T02:18:28.861Z,93910.94
2022-09-28T02:21:01.963Z,93908.00
2022-09-28T02:23:34.994Z,93911.44
2022-09-28T02:26:08.249Z,93904.19
2022-09-28T02:28:39.999Z,93912.69
2022-09-28T02:31:09.149Z,93919.59
2022-09-28T02:33:40.204Z,93918.22
2022-09-28T02:36:09.605Z,93914.78
2022-09-28T02:38:40.178Z,93920.28
2022-09-28T02:41:27.930Z,93924.22
2022-09-28T02:44:07.373Z,93928.19
2022-09-28T02:46:46.931Z,93923.22
2022-09-28T02:49:31.304Z,93928.75
2022-09-28T02:52:16.357Z,93942.03
2022-09-28T02:55:04.657Z,93933.84
2022-09-28T02:57:48.287Z,93929.44
2022-09-28T03:00:21.201Z,93930.75
2022-09-28T03:02:52.542Z,93924.31
2022-09-28T03:05:24.731Z,93925.72
2022-09-28T03:08:00.376Z,93925.47
2022-09-28T03:10:36.857Z,93924.69
2022-09-28T03:13:07.300Z,93935.31
2022-09-28T03:15:38.926Z,93925.72
2022-09-28T03:18:07.734Z,93939.78
2022-09-28T03:20:36.485Z,93932.31
2022-09-28T03:23:24.880Z,93939.66
2022-09-28T03:25:54.987Z,93938.84
2022-09-28T03:28:23.994Z,93947.00
2022-09-28T03:30:54.504Z,93945.69
2022-09-28T03:33:24.112Z,93946.47
2022-09-28T03:35:53.530Z,93937.63
2022-09-28T03:38:22.910Z,93937.09
2022-09-28T03:40:55.872Z,93936.84
2022-09-28T03:43:25.724Z,93942.16
2022-09-28T03:45:59.750Z,93944.28
2022-09-28T03:48:32.893Z,93945.63
2022-09-28T03:51:03.485Z,93948.00
2022-09-28T03:53:32.178Z,93954.91
2022-09-28T03:56:05.684Z,93955.72
2022-09-28T03:58:35.166Z,93951.75
2022-09-28T04:01:07.775Z,93953.06
2022-09-28T04:03:37.522Z,93955.69
2022-09-28T04:06:06.887Z,93959.16
2022-09-28T04:08:37.196Z,93957.31
2022-09-28T04:11:05.936Z,93962.59
2022-09-28T04:13:35.895Z,93963.41
2022-09-28T04:16:06.522Z,93957.06
2022-09-28T04:18:36.562Z,93953.34
2022-09-28T04:21:22.647Z,93949.94
2022-09-28T04:23:58.429Z,93943.38
2022-09-28T04:26:28.925Z,93954.47
2022-09-28T04:29:16.332Z,93961.38
2022-09-28T04:42:57.561Z,93972.91
2022-09-28T04:45:27.681Z,93962.84
2022-09-28T04:48:03.245Z,93961.50
2022-09-28T04:50:54.016Z,93948.25
2022-09-28T04:53:24.809Z,93954.09
2022-09-28T04:56:00.206Z,93952.50
2022-09-28T04:58:32.049Z,93946.66
2022-09-28T05:01:03.071Z,93951.44
2022-09-28T05:03:52.254Z,93949.31
2022-09-28T05:06:35.420Z,93943.72
2022-09-28T05:09:07.721Z,93951.44
2022-09-28T05:11:36.637Z,93963.38
2022-09-28T05:14:12.803Z,93963.63
2022-09-28T05:16:42.480Z,93959.38
2022-09-28T05:19:20.449Z,93959.94
2022-09-28T05:21:50.686Z,93961.25
2022-09-28T05:24:19.402Z,93967.84
2022-09-28T05:26:52.714Z,93969.94
2022-09-28T05:29:23.337Z,93964.06
2022-09-28T05:32:12.409Z,93975.69
2022-09-28T05:34:47.185Z,93981.00
2022-09-28T05:37:23.294Z,93988.69
2022-09-28T05:39:51.966Z,93982.81
2022-09-28T05:42:20.754Z,93982.00
2022-09-28T05:44:51.057Z,93983.72
2022-09-28T05:47:19.804Z,93984.69
2022-09-28T05:49:48.652Z,93980.44
2022-09-28T05:52:17.515Z,93987.59
2022-09-28T05:54:47.017Z,93996.88
2022-09-28T05:57:16.403Z,94000.84
2022-09-28T05:59:45.162Z,93997.34
2022-09-28T06:02:15.378Z,93997.06
2022-09-28T06:04:45.826Z,93990.13
2022-09-28T06:07:14.558Z,93990.63
2022-09-28T06:09:43.304Z,93988.66
2022-09-28T06:12:12.129Z,93988.34
2022-09-28T06:14:45.400Z,93991.34
2022-09-28T06:17:15.955Z,94001.75
2022-09-28T06:19:48.924Z,94005.81
2022-09-28T06:22:36.445Z,94009.03
2022-09-28T06:25:09.599Z,94010.78
2022-09-28T06:27:42.703Z,94011.91
2022-09-28T06:30:12.775Z,94005.38
2022-09-28T06:32:43.770Z,94011.97
2022-09-28T06:35:15.660Z,94017.72
2022-09-28T06:37:46.543Z,94011.34
2022-09-28T06:40:15.487Z,94017.13
2022-09-28T06:42:44.527Z,94023.06
2022-09-28T06:45:30.479Z,94013.34
2022-09-28T06:48:26.676Z,94021.50
2022-09-28T06:50:55.573Z,94017.03
2022-09-28T06:53:30.097Z,94022.72
2022-09-28T06:56:03.209Z,94018.00
2022-09-28T06:58:32.656Z,94014.53
2022-09-28T07:01:02.556Z,94021.31
2022-09-28T07:03:41.720Z,94027.88
2022-09-28T07:06:14.023Z,94017.97
2022-09-28T07:09:01.717Z,94024.59
2022-09-28T07:12:10.221Z,94023.66
2022-09-28T07:14:57.506Z,94023.56
2022-09-28T07:17:28.871Z,94023.25
2022-09-28T07:20:16.172Z,94017.22
2022-09-28T07:22:49.075Z,94027.16
2022-09-28T07:25:22.842Z,94026.41
2022-09-28T07:28:05.901Z,94026.25
2022-09-28T07:30:51.209Z,94022.31
2022-09-28T07:33:40.045Z,94030.09
2022-09-28T07:36:36.544Z,94033.16
2022-09-28T07:50:51.983Z,94040.13
2022-09-28T07:53:56.297Z,94037.59
2022-09-28T07:56:27.945Z,94033.44
2022-09-28T07:59:02.922Z,94040.94
2022-09-28T08:01:40.830Z,94036.09
2022-09-28T08:04:12.282Z,94038.31
2022-09-28T08:06:45.164Z,94023.53
2022-09-28T08:09:15.402Z,94030.19
2022-09-28T08:12:10.906Z,94031.50
2022-09-28T08:14:46.167Z,94035.88
2022-09-28T08:17:34.230Z,94033.75
2022-09-28T08:20:24.953Z,94047.50
2022-09-28T08:22:55.250Z,94037.25
2022-09-28T08:25:24.494Z,94032.41
2022-09-28T08:27:53.596Z,94038.94
2022-09-28T08:30:25.627Z,94042.63
2022-09-28T08:33:07.912Z,94050.19
2022-09-28T08:35:46.986Z,94042.56
2022-09-28T08:38:34.937Z,94044.34
2022-09-28T08:41:37.035Z,94042.06
2022-09-28T08:44:28.247Z,94041.13
2022-09-28T08:47:32.429Z,94043.03
2022-09-28T08:50:21.926Z,94030.78
2022-09-28T08:53:22.122Z,94035.63
2022-09-28T08:56:03.727Z,94030.53
2022-09-28T08:58:38.275Z,94023.19
2022-09-28T09:01:11.984Z,94027.97
2022-09-28T09:03:42.073Z,94018.09
2022-09-28T09:07:03.085Z,94011.16
2022-09-28T09:09:49.288Z,94015.78
2022-09-28T09:12:30.832Z,94008.47
2022-09-28T09:15:27.396Z,94009.03
2022-09-28T09:18:15.484Z,94005.75
2022-09-28T09:20:58.726Z,94003.81
2022-09-28T09:23:55.392Z,94006.09
2022-09-28T09:26:37.345Z,93987.16
2022-09-28T09:29:27.906Z,93996.38
2022-09-28T09:32:14.830Z,93991.53
2022-09-28T09:34:57.712Z,93992.91
2022-09-28T09:38:19.416Z,93984.44
2022-09-28T09:41:22.672Z,93994.22
2022-09-28T09:44:32.971Z,93991.44
2022-09-28T09:47:35.509Z,93990.88
2022-09-28T09:50:15.231Z,93987.78
2022-09-28T09:52:51.488Z,93987.69
2022-09-28T09:55:30.086Z,93989.50
2022-09-28T09:58:23.965Z,93982.34
2022-09-28T10:01:09.232Z,93993.72
2022-09-28T10:04:20.826Z,94002.28
2022-09-28T10:06:54.388Z,93992.25
2022-09-28T10:09:26.401Z,93989.56
2022-09-28T10:11:59.129Z,93986.59
2022-09-28T10:14:28.105Z,93987.06
2022-09-28T10:17:08.370Z,93985.38
2022-09-28T10:19:59.634Z,93986.06
2022-09-28T10:22:47.157Z,93968.50
2022-09-28T10:25:20.050Z,93969.00
2022-09-28T10:27:52.420Z,93966.69
2022-09-28T10:30:24.391Z,93958.69
2022-09-28T10:32:59.589Z,93966.59
2022-09-28T10:35:42.633Z,93959.75
2022-09-28T10:38:18.731Z,93963.28
2022-09-28T10:40:59.934Z,93961.94
2022-09-28T10:43:51.289Z,93966.00
2022-09-28T10:46:25.168Z,93983.34
2022-09-28T10:49:03.884Z,93963.53
2022-09-28T10:51:44.276Z,93963.03
2022-09-28T10:54:19.608Z,93953.91
2022-09-28T10:56:53.109Z,93960.03
2022-09-28T10:59:44.317Z,93957.28
2022-09-28T11:02:32.431Z,93953.47
2022-09-28T11:05:23.980Z,93943.94
2022-09-28T11:07:58.266Z,93933.28
2022-09-28T11:10:34.886Z,93930.69
2022-09-28T11:13:12.241Z,93936.22
2022-09-28T11:15:45.601Z,93931.72
2022-09-28T11:18:31.663Z,93937.59
2022-09-28T11:21:14.854Z,93927.47
2022-09-28T11:24:07.572Z,93915.47
2022-09-28T11:26:44.199Z,93916.03
2022-09-28T11:29:36.003Z,93915.63
2022-09-28T11:32:23.673Z,93907.41
2022-09-28T11:35:19.931Z,93906.28
2022-09-28T11:38:04.892Z,93903.94
2022-09-28T11:41:13.370Z,93907.09
2022-09-28T11:43:58.005Z,93916.31
2022-09-28T11:46:35.166Z,93917.88
2022-09-28T11:49:28.921Z,93911.91
2022-09-28T11:52:02.489Z,93912.47
2022-09-28T11:54:40.065Z,93912.81
2022-09-28T11:57:16.280Z,93904.03
2022-09-28T11:59:54.450Z,93904.88
2022-09-28T12:02:27.384Z,93894.19
2022-09-28T12:05:15.921Z,93898.69
2022-09-28T12:07:54.605Z,93895.28
2022-09-28T12:10:51.303Z,93888.56
2022-09-28T12:13:29.630Z,93890.56
2022-09-28T12:16:38.410Z,93897.19
2022-09-28T12:18:54.765Z,93896.75
2022-09-28T12:21:37.878Z,93900.06
2022-09-28T12:24:16.627Z,93904.06
2022-09-28T12:26:53.294Z,93900.97
2022-09-28T12:29:27.773Z,93893.34
2022-09-28T12:32:05.968Z,93898.13
2022-09-28T12:34:34.711Z,93902.25
2022-09-28T12:37:27.882Z,93892.03
2022-09-28T12:40:25.735Z,93891.88
2022-09-28T12:43:31.410Z,93889.72
2022-09-28T12:46:21.179Z,93885.66
2022-09-28T12:50:33.381Z,93884.41
2022-09-28T12:52:28.445Z,93887.09
2022-09-28T12:55:14.478Z,93885.88
2022-09-28T12:57:53.089Z,93880.97
2022-09-28T13:00:25.392Z,93877.31
2022-09-28T13:03:31.796Z,93877.97
2022-09-28T13:06:52.053Z,93882.69
2022-09-28T13:09:22.988Z,93884.78
2022-09-28T13:12:06.556Z,93889.06
2022-09-28T13:15:05.511Z,93885.72
2022-09-28T13:17:48.195Z,93885.91
2022-09-28T13:20:30.386Z,93886.22
2022-09-28T13:23:15.296Z,93891.03
2022-09-28T13:25:49.248Z,93887.41
2022-09-28T13:28:24.994Z,93888.25
2022-09-28T13:31:00.432Z,93890.94
2022-09-28T13:33:35.894Z,93880.16
2022-09-28T13:36:05.836Z,93883.81
2022-09-28T13:38:49.790Z,93891.56
2022-09-28T13:41:24.853Z,93887.75
2022-09-28T13:44:12.451Z,93889.47
2022-09-28T13:46:52.811Z,93889.28
2022-09-28T13:49:27.699Z,93891.69
2022-09-28T13:52:06.553Z,93893.78
2022-09-28T13:55:04.003Z,93887.34
2022-09-28T13:57:43.063Z,93885.53
2022-09-28T14:00:30.185Z,93879.25
2022-09-28T14:03:05.685Z,93881.31
2022-09-28T14:08:29.554Z,93883.91
2022-09-28T14:11:00.468Z,93890.88
2022-09-28T14:14:01.210Z,93877.25
2022-09-28T14:16:32.493Z,93889.28
2022-09-28T14:19:07.275Z,93882.47
2022-09-28T14:22:02.510Z,93886.13
2022-09-28T14:24:53.229Z,93883.19
2022-09-28T14:27:55.667Z,93878.47
2022-09-28T14:30:26.435Z,93874.06
2022-09-28T14:32:58.086Z,93871.69
2022-09-28T14:35:32.996Z,93873.28
2022-09-28T14:38:25.007Z,93879.91
2022-09-28T14:41:12.850Z,93869.69
2022-09-28T14:44:06.775Z,93874.38
2022-09-28T14:46:37.828Z,93858.50
2022-09-28T14:49:49.210Z,93860.53
2022-09-28T14:52:40.800Z,93871.63
2022-09-28T14:55:16.789Z,93866.56
2022-09-28T14:57:46.235Z,93878.22
2022-09-28T15:00:22.234Z,93871.13
2022-09-28T15:02:53.049Z,93872.56
2022-09-28T15:05:26.089Z,93865.13
2022-09-28T15:07:56.310Z,93862.38
2022-09-28T15:10:33.001Z,93864.44
2022-09-28T15:13:03.228Z,93867.78
2022-09-28T15:15:35.572Z,93865.75
2022-09-28T15:18:21.836Z,93871.66
2022-09-28T15:20:51.509Z,93866.81
2022-09-28T15:23:34.435Z,93866.69
2022-09-28T15:26:07.312Z,93866.16
2022-09-28T15:28:36.712Z,93862.56
2022-09-28T15:31:06.754Z,93870.41
2022-09-28T15:33:53.486Z,93865.84
2022-09-28T15:36:26.646Z,93866.22
2022-09-28T15:38:58.923Z,93870.53
2022-09-28T15:41:29.865Z,93878.47
2022-09-28T15:44:23.684Z,93880.09
2022-09-28T15:47:06.549Z,93882.84
2022-09-28T15:49:41.355Z,93879.69
2022-09-28T15:52:26.758Z,93885.91
2022-09-28T15:54:56.866Z,93893.50
2022-09-28T15:57:37.110Z,93886.56
2022-09-28T16:00:08.490Z,93891.78
2022-09-28T16:02:40.811Z,93895.38
2022-09-28T16:05:36.012Z,93890.66
2022-09-28T16:08:06.733Z,93884.63
2022-09-28T16:10:36.113Z,93893.16
2022-09-28T16:13:16.389Z,93901.34
2022-09-28T16:15:45.871Z,93891.69
2022-09-28T16:18:20.930Z,93884.13
2022-09-28T16:20:52.474Z,93886.94
2022-09-28T16:23:25.131Z,93889.94
2022-09-28T16:25:58.932Z,93892.91
2022-09-28T16:28:52.649Z,93888.19
2022-09-28T16:31:30.376Z,93891.31
2022-09-28T16:34:02.507Z,93893.16
2022-09-28T16:36:43.706Z,93889.69
2022-09-28T16:39:13.345Z,93889.50
2022-09-28T16:41:45.349Z,93897.84
2022-09-28T16:44:20.587Z,93902.75
2022-09-28T16:46:49.636Z,93902.59
2022-09-28T16:49:20.118Z,93911.44
2022-09-28T16:51:49.512Z,93900.88
2022-09-28T16:54:37.786Z,93895.16
2022-09-28T16:57:07.679Z,93903.94
2022-09-28T16:59:39.228Z,93905.50
2022-09-28T17:02:42.341Z,93906.13
2022-09-28T17:05:08.269Z,93905.13
2022-09-28T17:07:37.313Z,93907.97
2022-09-28T17:10:17.667Z,93918.53
2022-09-28T17:12:47.445Z,93912.03
2022-09-28T17:15:19.693Z,93913.13
2022-09-28T17:17:49.641Z,93905.84
2022-09-28T17:20:23.034Z,93911.81
2022-09-28T17:22:52.231Z,93902.97
2022-09-28T17:25:22.465Z,93915.91
2022-09-28T17:27:52.876Z,93919.97
2022-09-28T17:30:25.702Z,93919.03
2022-09-28T17:32:54.429Z,93923.59
2022-09-28T17:35:24.984Z,93929.31
2022-09-28T17:37:54.712Z,93931.13
2022-09-28T17:40:25.700Z,93930.31
2022-09-28T17:42:56.229Z,93931.13
2022-09-28T17:45:28.798Z,93946.31
2022-09-28T17:47:57.751Z,93943.63
2022-09-28T17:50:28.276Z,93951.34
2022-09-28T17:53:00.027Z,93951.25
2022-09-28T17:55:31.724Z,93949.38
2022-09-28T17:58:02.211Z,93947.00
2022-09-28T18:00:33.611Z,93956.09
2022-09-28T18:03:02.449Z,93955.28
2022-09-28T18:05:31.792Z,93960.28
2022-09-28T18:08:00.694Z,93953.56
2022-09-28T18:10:30.987Z,93957.25
2022-09-28T18:12:59.727Z,93968.25
2022-09-28T18:15:28.610Z,93968.25
2022-09-28T18:17:59.074Z,93972.81
2022-09-28T18:20:28.071Z,93975.47
2022-09-28T18:22:57.107Z,93973.59
2022-09-28T18:25:25.945Z,93978.16
2022-09-28T18:27:57.520Z,93985.81
2022-09-28T18:30:26.913Z,93985.19
2022-09-28T18:32:56.040Z,93987.88
2022-09-28T18:35:26.651Z,93975.69
2022-09-28T18:37:55.349Z,93983.72
2022-09-28T18:40:24.322Z,93989.25
2022-09-28T18:42:53.503Z,93980.56
2022-09-28T18:45:22.611Z,93989.97
2022-09-28T18:47:51.466Z,93996.53
2022-09-28T18:50:20.566Z,93998.94
2022-09-28T18:52:50.877Z,93992.50
2022-09-28T18:55:20.202Z,93990.41
2022-09-28T18:57:49.130Z,94002.81
2022-09-28T19:00:18.066Z,93998.03
2022-09-28T19:02:47.039Z,93998.75
2022-09-28T19:05:15.828Z,93998.25
2022-09-28T19:07:44.635Z,94003.69
2022-09-28T19:10:14.921Z,94001.78
2022-09-28T19:12:43.752Z,94009.94
2022-09-28T19:15:12.986Z,94004.59
2022-09-28T19:17:42.687Z,94008.13
2022-09-28T19:20:11.850Z,94003.16
2022-09-28T19:22:40.562Z,94012.44
2022-09-28T19:25:09.832Z,94005.31
2022-09-28T19:27:40.834Z,94010.47
2022-09-28T19:30:10.745Z,94009.44
2022-09-28T19:32:39.470Z,94008.19
2022-09-28T19:35:09.930Z,94013.81
2022-09-28T19:37:39.567Z,94014.41
2022-09-28T19:40:09.671Z,94022.47
2022-09-28T19:42:41.067Z,94012.69
2022-09-28T19:45:10.407Z,94017.31
2022-09-28T19:47:39.245Z,94014.75
2022-09-28T19:50:08.464Z,94021.75
2022-09-28T19:52:37.289Z,94027.97
2022-09-28T19:55:06.674Z,94025.47
2022-09-28T19:57:35.410Z,94020.50
2022-09-28T20:00:06.797Z,94029.59
2022-09-28T20:02:35.960Z,94026.28
2022-09-28T20:05:05.129Z,94029.91
2022-09-28T20:07:34.916Z,94026.66
2022-09-28T20:10:03.783Z,94025.91
2022-09-28T20:12:33.089Z,94015.63
2022-09-28T20:15:01.853Z,94022.03
2022-09-28T20:17:34.091Z,94025.56
2022-09-28T20:20:03.092Z,94029.66
2022-09-28T20:22:31.906Z,94034.19
2022-09-28T20:25:02.929Z,94036.91
2022-09-28T20:27:31.772Z,94030.06
2022-09-28T20:30:01.008Z,94043.25
2022-09-28T20:32:35.353Z,94040.09
2022-09-28T20:35:04.097Z,94036.34
2022-09-28T20:37:33.606Z,94040.44
2022-09-28T20:40:02.838Z,94042.88
2022-09-28T20:42:32.913Z,94047.19
2022-09-28T20:45:01.624Z,94037.56
2022-09-28T20:47:33.433Z,94049.22
2022-09-28T20:50:02.644Z,94057.53
2022-09-28T20:52:31.533Z,94063.66
2022-09-28T20:55:00.348Z,94070.78
2022-09-28T20:57:29.384Z,94073.44
2022-09-28T20:59:58.082Z,94071.84
2022-09-28T21:02:26.930Z,94066.31
2022-09-28T21:04:57.084Z,94062.13
2022-09-28T21:07:25.771Z,94068.25
2022-09-28T21:09:54.598Z,94073.84
2022-09-28T21:12:26.167Z,94082.72
2022-09-28T21:14:54.811Z,94084.88
2022-09-28T21:17:24.186Z,94080.91
2022-09-28T21:19:52.952Z,94081.69
2022-09-28T21:22:23.046Z,94078.91
2022-09-28T21:24:51.763Z,94084.78
2022-09-28T21:27:20.479Z,94077.59
2022-09-28T21:29:49.323Z,94093.09
2022-09-28T21:32:18.104Z,94083.50
2022-09-28T21:34:47.002Z,94082.13
2022-09-28T21:37:15.722Z,94085.59
2022-09-28T21:39:45.971Z,94080.31
2022-09-28T21:42:14.605Z,94078.19
2022-09-28T21:44:43.292Z,94081.13
2022-09-28T21:47:12.042Z,94086.78
2022-09-28T21:49:40.900Z,94082.25
2022-09-28T21:52:09.629Z,94087.00
2022-09-28T21:54:38.316Z,94088.66
2022-09-28T21:57:09.068Z,94085.69
2022-09-28T21:59:37.803Z,94092.41
2022-09-28T22:02:07.490Z,94088.72
2022-09-28T22:04:36.644Z,94083.91
2022-09-28T22:07:05.323Z,94081.78
2022-09-28T22:09:34.009Z,94087.91
2022-09-28T22:12:03.329Z,94096.03
2022-09-28T22:14:33.405Z,94090.25
2022-09-28T22:17:02.145Z,94088.66
2022-09-28T22:19:30.915Z,94090.56
2022-09-28T22:21:59.630Z,94085.31
2022-09-28T22:24:28.674Z,94076.25
2022-09-28T22:26:57.406Z,94077.03
2022-09-28T22:29:26.136Z,94080.31
2022-09-28T22:32:02.210Z,94079.50
2022-09-28T22:34:32.024Z,94076.56
2022-09-28T22:37:01.290Z,94065.41
2022-09-28T22:39:32.215Z,94074.44
2022-09-28T22:42:04.129Z,94070.69
2022-09-28T22:44:32.803Z,94069.63
2022-09-28T22:47:03.389Z,94078.91
2022-09-28T22:49:32.802Z,94085.31
2022-09-28T22:52:01.696Z,94090.56
2022-09-28T22:54:30.611Z,94091.31
2022-09-28T22:56:59.311Z,94088.94
2022-09-28T22:59:28.009Z,94081.28
2022-09-28T23:01:56.759Z,94086.56
2022-09-28T23:04:26.988Z,94080.13
2022-09-28T23:06:55.570Z,94079.25
2022-09-28T23:09:24.253Z,94076.06
2022-09-28T23:11:52.975Z,94069.19
2022-09-28T23:14:22.849Z,94068.56
2022-09-28T23:16:51.599Z,94072.59
2022-09-28T23:19:20.438Z,94077.34
2022-09-28T23:21:50.753Z,94064.03
2022-09-28T23:24:19.691Z,94068.56
2022-09-28T23:26:48.362Z,94070.72
2022-09-28T23:29:17.095Z,94058.72
2022-09-28T23:31:45.928Z,94059.22
2022-09-28T23:34:14.743Z,94057.81
2022-09-28T23:36:43.352Z,94062.84
2022-09-28T23:39:13.838Z,94048.22
2022-09-28T23:41:42.494Z,94055.13
2022-09-28T23:44:11.399Z,94053.00
2022-09-28T23:46:40.233Z,94053.28
2022-09-28T23:49:08.890Z,94058.88
2022-09-28T23:51:37.553Z,94047.19
2022-09-28T23:54:06.854Z,94050.66
2022-09-28T23:56:36.999Z,94049.81
2022-09-28T23:59:05.769Z,94038.63
